sensor_id;sensor_type;location;lat;lon;timestamp;temperature;humidity
13796;SHT30;40911;51.552;9.874;2023-08-30T00:00:45;12.61;90.21
13796;SHT30;40911;51.552;9.874;2023-08-30T00:03:07;12.78;89.48
13796;SHT30;40911;51.552;9.874;2023-08-30T00:05:28;12.67;89.57
13796;SHT30;40911;51.552;9.874;2023-08-30T00:07:51;12.57;89.91
13796;SHT30;40911;51.552;9.874;2023-08-30T00:10:13;12.46;90.31
13796;SHT30;40911;51.552;9.874;2023-08-30T00:12:34;12.60;89.89
13796;SHT30;40911;51.552;9.874;2023-08-30T00:14:57;12.71;89.60
13796;SHT30;40911;51.552;9.874;2023-08-30T00:17:18;12.67;89.24
13796;SHT30;40911;51.552;9.874;2023-08-30T00:19:40;12.55;90.28
13796;SHT30;40911;51.552;9.874;2023-08-30T00:22:02;12.43;90.46
13796;SHT30;40911;51.552;9.874;2023-08-30T00:24:27;12.44;90.32
13796;SHT30;40911;51.552;9.874;2023-08-30T00:26:50;12.53;90.19
13796;SHT30;40911;51.552;9.874;2023-08-30T00:29:11;12.27;91.05
13796;SHT30;40911;51.552;9.874;2023-08-30T00:31:33;12.43;90.66
13796;SHT30;40911;51.552;9.874;2023-08-30T00:33:54;12.48;90.18
13796;SHT30;40911;51.552;9.874;2023-08-30T00:36:16;12.44;90.08
13796;SHT30;40911;51.552;9.874;2023-08-30T00:38:38;12.29;90.95
13796;SHT30;40911;51.552;9.874;2023-08-30T00:41:01;12.46;90.08
13796;SHT30;40911;51.552;9.874;2023-08-30T00:43:23;12.46;89.97
13796;SHT30;40911;51.552;9.874;2023-08-30T00:45:45;12.38;89.88
13796;SHT30;40911;51.552;9.874;2023-08-30T00:48:07;12.41;90.55
13796;SHT30;40911;51.552;9.874;2023-08-30T00:50:29;12.44;90.27
13796;SHT30;40911;51.552;9.874;2023-08-30T00:52:51;12.47;89.78
13796;SHT30;40911;51.552;9.874;2023-08-30T00:55:12;12.29;90.18
13796;SHT30;40911;51.552;9.874;2023-08-30T00:57:37;12.17;91.25
13796;SHT30;40911;51.552;9.874;2023-08-30T00:59:59;12.20;90.72
13796;SHT30;40911;51.552;9.874;2023-08-30T01:02:21;12.22;90.57
13796;SHT30;40911;51.552;9.874;2023-08-30T01:04:45;12.10;90.95
13796;SHT30;40911;51.552;9.874;2023-08-30T01:07:06;12.10;90.90
13796;SHT30;40911;51.552;9.874;2023-08-30T01:09:28;12.08;90.83
13796;SHT30;40911;51.552;9.874;2023-08-30T01:11:55;12.12;90.60
13796;SHT30;40911;51.552;9.874;2023-08-30T01:14:22;11.86;91.60
13796;SHT30;40911;51.552;9.874;2023-08-30T01:16:46;11.88;91.45
13796;SHT30;40911;51.552;9.874;2023-08-30T01:22:00;11.83;91.30
13796;SHT30;40911;51.552;9.874;2023-08-30T01:24:28;11.79;91.16
13796;SHT30;40911;51.552;9.874;2023-08-30T01:27:05;11.55;91.90
13796;SHT30;40911;51.552;9.874;2023-08-30T01:29:30;11.92;90.69
13796;SHT30;40911;51.552;9.874;2023-08-30T01:31:52;12.03;90.63
13796;SHT30;40911;51.552;9.874;2023-08-30T01:34:16;12.00;90.21
13796;SHT30;40911;51.552;9.874;2023-08-30T01:36:38;11.89;90.28
13796;SHT30;40911;51.552;9.874;2023-08-30T01:39:03;11.77;90.71
13796;SHT30;40911;51.552;9.874;2023-08-30T01:41:25;11.68;91.35
13796;SHT30;40911;51.552;9.874;2023-08-30T01:43:49;11.77;91.14
13796;SHT30;40911;51.552;9.874;2023-08-30T01:46:13;11.40;92.44
13796;SHT30;40911;51.552;9.874;2023-08-30T01:48:36;11.28;93.32
13796;SHT30;40911;51.552;9.874;2023-08-30T01:50:58;11.34;92.77
13796;SHT30;40911;51.552;9.874;2023-08-30T01:53:20;11.26;92.83
13796;SHT30;40911;51.552;9.874;2023-08-30T01:55:43;11.61;91.47
13796;SHT30;40911;51.552;9.874;2023-08-30T01:58:05;11.54;91.25
13796;SHT30;40911;51.552;9.874;2023-08-30T02:00:28;11.19;93.29
13796;SHT30;40911;51.552;9.874;2023-08-30T02:02:50;11.43;92.28
13796;SHT30;40911;51.552;9.874;2023-08-30T02:05:11;11.44;92.36
13796;SHT30;40911;51.552;9.874;2023-08-30T02:07:37;11.23;92.52
13796;SHT30;40911;51.552;9.874;2023-08-30T02:10:03;10.99;94.07
13796;SHT30;40911;51.552;9.874;2023-08-30T02:12:33;10.97;93.93
13796;SHT30;40911;51.552;9.874;2023-08-30T02:14:56;10.89;93.95
13796;SHT30;40911;51.552;9.874;2023-08-30T02:17:20;10.95;93.52
13796;SHT30;40911;51.552;9.874;2023-08-30T02:19:42;11.10;93.02
13796;SHT30;40911;51.552;9.874;2023-08-30T02:22:04;10.97;93.52
13796;SHT30;40911;51.552;9.874;2023-08-30T02:24:26;11.14;92.52
13796;SHT30;40911;51.552;9.874;2023-08-30T02:26:47;11.20;92.05
13796;SHT30;40911;51.552;9.874;2023-08-30T02:29:09;11.14;92.13
13796;SHT30;40911;51.552;9.874;2023-08-30T02:31:31;11.09;92.46
13796;SHT30;40911;51.552;9.874;2023-08-30T02:33:54;10.88;93.51
13796;SHT30;40911;51.552;9.874;2023-08-30T02:36:16;10.83;93.61
13796;SHT30;40911;51.552;9.874;2023-08-30T02:38:37;10.76;93.81
13796;SHT30;40911;51.552;9.874;2023-08-30T02:40:59;10.93;93.44
13796;SHT30;40911;51.552;9.874;2023-08-30T02:43:21;11.02;93.10
13796;SHT30;40911;51.552;9.874;2023-08-30T02:45:43;11.04;92.86
13796;SHT30;40911;51.552;9.874;2023-08-30T02:48:05;11.00;92.55
13796;SHT30;40911;51.552;9.874;2023-08-30T02:50:28;10.96;92.76
13796;SHT30;40911;51.552;9.874;2023-08-30T02:52:50;10.92;92.87
13796;SHT30;40911;51.552;9.874;2023-08-30T02:55:12;11.04;92.46
13796;SHT30;40911;51.552;9.874;2023-08-30T02:57:34;11.03;91.75
13796;SHT30;40911;51.552;9.874;2023-08-30T02:59:55;10.92;92.10
13796;SHT30;40911;51.552;9.874;2023-08-30T03:02:17;10.85;92.39
13796;SHT30;40911;51.552;9.874;2023-08-30T03:04:39;10.85;92.14
13796;SHT30;40911;51.552;9.874;2023-08-30T03:07:02;10.64;93.33
13796;SHT30;40911;51.552;9.874;2023-08-30T03:09:24;10.51;93.57
13796;SHT30;40911;51.552;9.874;2023-08-30T03:11:45;10.88;92.32
13796;SHT30;40911;51.552;9.874;2023-08-30T03:14:07;10.71;93.14
13796;SHT30;40911;51.552;9.874;2023-08-30T03:16:29;10.41;94.20
13796;SHT30;40911;51.552;9.874;2023-08-30T03:18:51;10.48;94.29
13796;SHT30;40911;51.552;9.874;2023-08-30T03:21:13;10.41;94.73
13796;SHT30;40911;51.552;9.874;2023-08-30T03:23:38;10.45;94.98
13796;SHT30;40911;51.552;9.874;2023-08-30T03:26:06;10.65;94.06
13796;SHT30;40911;51.552;9.874;2023-08-30T03:28:28;10.68;93.83
13796;SHT30;40911;51.552;9.874;2023-08-30T03:30:50;10.88;93.09
13796;SHT30;40911;51.552;9.874;2023-08-30T03:33:12;10.81;92.57
13796;SHT30;40911;51.552;9.874;2023-08-30T03:35:34;10.83;93.04
13796;SHT30;40911;51.552;9.874;2023-08-30T03:37:56;10.91;92.65
13796;SHT30;40911;51.552;9.874;2023-08-30T03:40:19;10.78;92.49
13796;SHT30;40911;51.552;9.874;2023-08-30T03:42:41;10.72;92.64
13796;SHT30;40911;51.552;9.874;2023-08-30T03:45:03;10.75;92.64
13796;SHT30;40911;51.552;9.874;2023-08-30T03:47:25;10.72;92.91
13796;SHT30;40911;51.552;9.874;2023-08-30T03:49:47;10.76;92.72
13796;SHT30;40911;51.552;9.874;2023-08-30T03:52:09;10.49;93.31
13796;SHT30;40911;51.552;9.874;2023-08-30T03:54:31;10.52;93.39
13796;SHT30;40911;51.552;9.874;2023-08-30T03:56:55;10.68;93.07
13796;SHT30;40911;51.552;9.874;2023-08-30T03:59:17;10.68;92.51
13796;SHT30;40911;51.552;9.874;2023-08-30T04:01:38;10.40;93.53
13796;SHT30;40911;51.552;9.874;2023-08-30T04:04:00;10.49;93.84
13796;SHT30;40911;51.552;9.874;2023-08-30T04:06:22;10.57;93.51
13796;SHT30;40911;51.552;9.874;2023-08-30T04:08:43;10.64;93.09
13796;SHT30;40911;51.552;9.874;2023-08-30T04:11:05;10.54;93.62
13796;SHT30;40911;51.552;9.874;2023-08-30T04:13:28;10.61;93.25
13796;SHT30;40911;51.552;9.874;2023-08-30T04:15:51;10.52;93.15
13796;SHT30;40911;51.552;9.874;2023-08-30T04:18:13;10.61;92.83
13796;SHT30;40911;51.552;9.874;2023-08-30T04:20:34;10.48;94.22
13796;SHT30;40911;51.552;9.874;2023-08-30T04:22:56;10.45;94.02
13796;SHT30;40911;51.552;9.874;2023-08-30T04:25:18;10.51;93.70
13796;SHT30;40911;51.552;9.874;2023-08-30T04:27:40;10.55;93.34
13796;SHT30;40911;51.552;9.874;2023-08-30T04:30:03;10.68;92.96
13796;SHT30;40911;51.552;9.874;2023-08-30T04:32:25;10.38;94.09
13796;SHT30;40911;51.552;9.874;2023-08-30T04:34:46;10.44;94.50
13796;SHT30;40911;51.552;9.874;2023-08-30T04:37:08;10.27;95.29
13796;SHT30;40911;51.552;9.874;2023-08-30T04:39:30;10.21;95.80
13796;SHT30;40911;51.552;9.874;2023-08-30T04:41:51;10.24;96.34
13796;SHT30;40911;51.552;9.874;2023-08-30T04:44:13;10.31;96.47
13796;SHT30;40911;51.552;9.874;2023-08-30T04:46:38;10.47;96.05
13796;SHT30;40911;51.552;9.874;2023-08-30T04:48:59;10.41;96.03
13796;SHT30;40911;51.552;9.874;2023-08-30T04:51:21;10.64;95.52
13796;SHT30;40911;51.552;9.874;2023-08-30T04:53:43;10.78;95.10
13796;SHT30;40911;51.552;9.874;2023-08-30T04:56:10;10.88;94.93
13796;SHT30;40911;51.552;9.874;2023-08-30T04:58:33;10.75;95.21
13796;SHT30;40911;51.552;9.874;2023-08-30T05:00:55;10.97;95.33
13796;SHT30;40911;51.552;9.874;2023-08-30T05:03:19;11.00;94.88
13796;SHT30;40911;51.552;9.874;2023-08-30T05:05:45;11.20;94.58
13796;SHT30;40911;51.552;9.874;2023-08-30T05:08:06;11.37;93.53
13796;SHT30;40911;51.552;9.874;2023-08-30T05:10:28;11.31;93.89
13796;SHT30;40911;51.552;9.874;2023-08-30T05:12:49;11.13;94.74
13796;SHT30;40911;51.552;9.874;2023-08-30T05:15:12;11.09;95.22
13796;SHT30;40911;51.552;9.874;2023-08-30T05:17:33;11.30;95.48
13796;SHT30;40911;51.552;9.874;2023-08-30T05:19:56;11.69;93.31
13796;SHT30;40911;51.552;9.874;2023-08-30T05:22:18;11.68;93.99
13796;SHT30;40911;51.552;9.874;2023-08-30T05:24:40;11.88;93.14
13796;SHT30;40911;51.552;9.874;2023-08-30T05:27:01;11.92;93.09
13796;SHT30;40911;51.552;9.874;2023-08-30T05:29:23;11.98;93.54
13796;SHT30;40911;51.552;9.874;2023-08-30T05:31:45;12.08;93.05
13796;SHT30;40911;51.552;9.874;2023-08-30T05:34:06;12.09;92.97
13796;SHT30;40911;51.552;9.874;2023-08-30T05:36:30;12.06;93.49
13796;SHT30;40911;51.552;9.874;2023-08-30T05:38:51;12.10;93.24
13796;SHT30;40911;51.552;9.874;2023-08-30T05:41:13;12.09;93.72
13796;SHT30;40911;51.552;9.874;2023-08-30T05:43:35;12.30;92.70
13796;SHT30;40911;51.552;9.874;2023-08-30T05:45:56;12.22;93.06
13796;SHT30;40911;51.552;9.874;2023-08-30T05:48:22;12.30;92.63
13796;SHT30;40911;51.552;9.874;2023-08-30T05:50:43;12.13;92.98
13796;SHT30;40911;51.552;9.874;2023-08-30T05:53:07;12.27;93.11
13796;SHT30;40911;51.552;9.874;2023-08-30T05:55:28;12.34;92.82
13796;SHT30;40911;51.552;9.874;2023-08-30T05:57:50;12.47;92.70
13796;SHT30;40911;51.552;9.874;2023-08-30T06:00:12;12.46;92.37
13796;SHT30;40911;51.552;9.874;2023-08-30T06:02:34;12.37;93.28
13796;SHT30;40911;51.552;9.874;2023-08-30T06:04:56;12.46;93.04
13796;SHT30;40911;51.552;9.874;2023-08-30T06:07:18;12.40;92.99
13796;SHT30;40911;51.552;9.874;2023-08-30T06:09:41;12.43;92.94
13796;SHT30;40911;51.552;9.874;2023-08-30T06:12:04;12.53;92.65
13796;SHT30;40911;51.552;9.874;2023-08-30T06:14:26;12.61;92.24
13796;SHT30;40911;51.552;9.874;2023-08-30T06:16:47;12.37;93.45
13796;SHT30;40911;51.552;9.874;2023-08-30T06:19:09;12.44;93.26
13796;SHT30;40911;51.552;9.874;2023-08-30T06:21:31;12.64;92.55
13796;SHT30;40911;51.552;9.874;2023-08-30T06:23:52;12.64;92.88
13796;SHT30;40911;51.552;9.874;2023-08-30T06:26:15;12.69;92.88
13796;SHT30;40911;51.552;9.874;2023-08-30T06:28:37;12.81;92.87
13796;SHT30;40911;51.552;9.874;2023-08-30T06:30:59;12.91;92.34
13796;SHT30;40911;51.552;9.874;2023-08-30T06:33:21;13.02;91.84
13796;SHT30;40911;51.552;9.874;2023-08-30T06:35:42;13.08;91.85
13796;SHT30;40911;51.552;9.874;2023-08-30T06:38:04;12.63;92.28
13796;SHT30;40911;51.552;9.874;2023-08-30T06:40:26;13.03;91.93
13796;SHT30;40911;51.552;9.874;2023-08-30T06:42:49;12.86;92.17
13796;SHT30;40911;51.552;9.874;2023-08-30T06:45:10;13.26;91.20
13796;SHT30;40911;51.552;9.874;2023-08-30T06:47:32;13.27;91.42
13796;SHT30;40911;51.552;9.874;2023-08-30T06:49:54;13.34;90.80
13796;SHT30;40911;51.552;9.874;2023-08-30T06:52:16;13.46;91.38
13796;SHT30;40911;51.552;9.874;2023-08-30T06:54:37;13.39;90.71
13796;SHT30;40911;51.552;9.874;2023-08-30T06:56:59;13.81;90.54
13796;SHT30;40911;51.552;9.874;2023-08-30T06:59:22;14.02;90.18
13796;SHT30;40911;51.552;9.874;2023-08-30T07:01:44;14.10;90.04
13796;SHT30;40911;51.552;9.874;2023-08-30T07:04:05;14.40;89.49
13796;SHT30;40911;51.552;9.874;2023-08-30T07:06:27;14.25;89.09
13796;SHT30;40911;51.552;9.874;2023-08-30T07:08:51;14.39;89.35
13796;SHT30;40911;51.552;9.874;2023-08-30T07:11:12;14.54;88.90
13796;SHT30;40911;51.552;9.874;2023-08-30T07:13:34;14.43;89.42
13796;SHT30;40911;51.552;9.874;2023-08-30T07:15:57;14.71;89.07
13796;SHT30;40911;51.552;9.874;2023-08-30T07:18:19;14.71;88.45
13796;SHT30;40911;51.552;9.874;2023-08-30T07:20:40;14.80;88.77
13796;SHT30;40911;51.552;9.874;2023-08-30T07:23:02;14.88;89.28
13796;SHT30;40911;51.552;9.874;2023-08-30T07:25:24;14.99;88.79
13796;SHT30;40911;51.552;9.874;2023-08-30T07:27:46;15.05;88.12
13796;SHT30;40911;51.552;9.874;2023-08-30T07:30:08;15.40;88.16
13796;SHT30;40911;51.552;9.874;2023-08-30T07:32:31;15.46;87.33
13796;SHT30;40911;51.552;9.874;2023-08-30T07:34:53;15.50;87.86
13796;SHT30;40911;51.552;9.874;2023-08-30T07:37:19;15.60;88.33
13796;SHT30;40911;51.552;9.874;2023-08-30T07:39:41;15.73;86.30
13796;SHT30;40911;51.552;9.874;2023-08-30T07:42:03;16.02;86.81
13796;SHT30;40911;51.552;9.874;2023-08-30T07:44:24;15.78;86.65
13796;SHT30;40911;51.552;9.874;2023-08-30T07:46:46;16.02;85.94
13796;SHT30;40911;51.552;9.874;2023-08-30T07:49:09;15.57;85.93
13796;SHT30;40911;51.552;9.874;2023-08-30T07:51:31;16.01;86.49
13796;SHT30;40911;51.552;9.874;2023-08-30T07:53:52;16.02;85.70
13796;SHT30;40911;51.552;9.874;2023-08-30T07:56:14;15.88;86.28
13796;SHT30;40911;51.552;9.874;2023-08-30T07:58:36;15.88;86.42
13796;SHT30;40911;51.552;9.874;2023-08-30T08:00:57;16.05;86.52
13796;SHT30;40911;51.552;9.874;2023-08-30T08:03:20;16.22;86.06
13796;SHT30;40911;51.552;9.874;2023-08-30T08:05:44;16.56;85.47
13796;SHT30;40911;51.552;9.874;2023-08-30T08:08:06;16.04;84.79
13796;SHT30;40911;51.552;9.874;2023-08-30T08:10:27;16.47;84.88
13796;SHT30;40911;51.552;9.874;2023-08-30T08:12:49;16.88;84.29
13796;SHT30;40911;51.552;9.874;2023-08-30T08:15:10;16.85;83.84
13796;SHT30;40911;51.552;9.874;2023-08-30T08:17:32;16.81;83.78
13796;SHT30;40911;51.552;9.874;2023-08-30T08:19:54;17.11;83.70
13796;SHT30;40911;51.552;9.874;2023-08-30T08:22:17;17.26;82.70
13796;SHT30;40911;51.552;9.874;2023-08-30T08:24:39;16.74;83.08
13796;SHT30;40911;51.552;9.874;2023-08-30T08:27:00;17.18;83.14
13796;SHT30;40911;51.552;9.874;2023-08-30T08:29:22;16.97;82.88
13796;SHT30;40911;51.552;9.874;2023-08-30T08:31:44;17.42;82.45
13796;SHT30;40911;51.552;9.874;2023-08-30T08:34:08;17.67;82.72
13796;SHT30;40911;51.552;9.874;2023-08-30T08:36:30;17.71;81.71
13796;SHT30;40911;51.552;9.874;2023-08-30T08:38:53;17.79;81.78
13796;SHT30;40911;51.552;9.874;2023-08-30T08:41:15;17.84;82.03
13796;SHT30;40911;51.552;9.874;2023-08-30T08:43:38;17.91;81.97
13796;SHT30;40911;51.552;9.874;2023-08-30T08:46:01;18.10;81.36
13796;SHT30;40911;51.552;9.874;2023-08-30T08:48:23;17.87;80.68
13796;SHT30;40911;51.552;9.874;2023-08-30T08:50:46;18.32;80.75
13796;SHT30;40911;51.552;9.874;2023-08-30T08:53:10;18.22;80.95
13796;SHT30;40911;51.552;9.874;2023-08-30T08:55:33;18.49;79.96
13796;SHT30;40911;51.552;9.874;2023-08-30T08:57:56;18.67;80.91
13796;SHT30;40911;51.552;9.874;2023-08-30T09:00:18;18.48;79.71
13796;SHT30;40911;51.552;9.874;2023-08-30T09:02:40;18.88;79.75
13796;SHT30;40911;51.552;9.874;2023-08-30T09:05:03;19.34;78.52
13796;SHT30;40911;51.552;9.874;2023-08-30T09:07:27;18.90;78.31
13796;SHT30;40911;51.552;9.874;2023-08-30T09:09:49;19.31;77.61
13796;SHT30;40911;51.552;9.874;2023-08-30T09:12:14;19.31;77.63
13796;SHT30;40911;51.552;9.874;2023-08-30T09:14:35;19.48;77.00
13796;SHT30;40911;51.552;9.874;2023-08-30T09:16:57;19.62;76.60
13796;SHT30;40911;51.552;9.874;2023-08-30T09:19:21;19.46;77.28
13796;SHT30;40911;51.552;9.874;2023-08-30T09:21:50;19.66;76.97
13796;SHT30;40911;51.552;9.874;2023-08-30T09:24:12;20.09;74.77
13796;SHT30;40911;51.552;9.874;2023-08-30T09:26:35;19.86;75.99
13796;SHT30;40911;51.552;9.874;2023-08-30T09:29:02;19.56;74.25
13796;SHT30;40911;51.552;9.874;2023-08-30T09:31:25;19.79;77.11
13796;SHT30;40911;51.552;9.874;2023-08-30T09:33:47;19.65;74.96
13796;SHT30;40911;51.552;9.874;2023-08-30T09:36:10;19.59;74.66
13796;SHT30;40911;51.552;9.874;2023-08-30T09:38:31;20.14;73.26
13796;SHT30;40911;51.552;9.874;2023-08-30T09:41:02;20.07;73.54
13796;SHT30;40911;51.552;9.874;2023-08-30T09:43:24;19.67;73.51
13796;SHT30;40911;51.552;9.874;2023-08-30T09:45:47;20.38;73.19
13796;SHT30;40911;51.552;9.874;2023-08-30T09:48:10;19.66;73.63
13796;SHT30;40911;51.552;9.874;2023-08-30T09:50:34;19.91;73.93
13796;SHT30;40911;51.552;9.874;2023-08-30T09:52:56;20.20;72.81
13796;SHT30;40911;51.552;9.874;2023-08-30T09:55:18;19.36;74.04
13796;SHT30;40911;51.552;9.874;2023-08-30T09:57:41;20.00;72.83
13796;SHT30;40911;51.552;9.874;2023-08-30T10:00:04;20.34;73.98
13796;SHT30;40911;51.552;9.874;2023-08-30T10:02:27;19.61;74.31
13796;SHT30;40911;51.552;9.874;2023-08-30T10:04:50;20.49;74.72
13796;SHT30;40911;51.552;9.874;2023-08-30T10:07:12;20.71;71.64
13796;SHT30;40911;51.552;9.874;2023-08-30T10:09:38;20.66;72.88
13796;SHT30;40911;51.552;9.874;2023-08-30T10:12:01;20.90;72.64
13796;SHT30;40911;51.552;9.874;2023-08-30T10:14:24;21.35;72.10
13796;SHT30;40911;51.552;9.874;2023-08-30T10:16:47;20.17;71.42
13796;SHT30;40911;51.552;9.874;2023-08-30T10:19:15;19.87;72.74
13796;SHT30;40911;51.552;9.874;2023-08-30T10:21:37;20.11;72.76
13796;SHT30;40911;51.552;9.874;2023-08-30T10:23:59;19.89;72.92
13796;SHT30;40911;51.552;9.874;2023-08-30T10:26:24;20.09;73.48
13796;SHT30;40911;51.552;9.874;2023-08-30T10:28:47;19.96;73.28
13796;SHT30;40911;51.552;9.874;2023-08-30T10:31:09;19.91;74.24
13796;SHT30;40911;51.552;9.874;2023-08-30T10:33:31;19.55;74.29
13796;SHT30;40911;51.552;9.874;2023-08-30T10:36:04;19.80;73.78
13796;SHT30;40911;51.552;9.874;2023-08-30T10:38:27;19.77;74.43
13796;SHT30;40911;51.552;9.874;2023-08-30T10:40:48;19.89;75.50
13796;SHT30;40911;51.552;9.874;2023-08-30T10:43:11;19.30;74.96
13796;SHT30;40911;51.552;9.874;2023-08-30T10:45:33;19.41;74.44
13796;SHT30;40911;51.552;9.874;2023-08-30T10:47:55;19.42;74.69
13796;SHT30;40911;51.552;9.874;2023-08-30T10:50:27;19.61;73.27
13796;SHT30;40911;51.552;9.874;2023-08-30T10:52:55;19.76;73.16
13796;SHT30;40911;51.552;9.874;2023-08-30T10:55:21;19.89;72.31
13796;SHT30;40911;51.552;9.874;2023-08-30T10:57:44;19.91;72.56
13796;SHT30;40911;51.552;9.874;2023-08-30T11:00:08;20.22;71.18
13796;SHT30;40911;51.552;9.874;2023-08-30T11:02:30;20.24;71.08
13796;SHT30;40911;51.552;9.874;2023-08-30T11:04:51;20.07;71.63
13796;SHT30;40911;51.552;9.874;2023-08-30T11:07:13;19.96;71.54
13796;SHT30;40911;51.552;9.874;2023-08-30T11:09:37;20.10;71.77
13796;SHT30;40911;51.552;9.874;2023-08-30T11:12:05;19.56;71.56
13796;SHT30;40911;51.552;9.874;2023-08-30T11:14:27;19.66;71.61
13796;SHT30;40911;51.552;9.874;2023-08-30T11:16:49;19.61;72.63
13796;SHT30;40911;51.552;9.874;2023-08-30T11:19:11;19.80;71.88
13796;SHT30;40911;51.552;9.874;2023-08-30T11:21:33;20.42;70.55
13796;SHT30;40911;51.552;9.874;2023-08-30T11:23:55;20.35;71.47
13796;SHT30;40911;51.552;9.874;2023-08-30T11:26:18;20.69;71.00
13796;SHT30;40911;51.552;9.874;2023-08-30T11:28:42;20.34;68.90
13796;SHT30;40911;51.552;9.874;2023-08-30T11:31:06;19.91;70.85
13796;SHT30;40911;51.552;9.874;2023-08-30T11:33:28;20.06;70.69
13796;SHT30;40911;51.552;9.874;2023-08-30T11:35:51;20.35;70.00
13796;SHT30;40911;51.552;9.874;2023-08-30T11:38:13;21.07;69.48
13796;SHT30;40911;51.552;9.874;2023-08-30T11:40:35;21.50;70.17
13796;SHT30;40911;51.552;9.874;2023-08-30T11:42:58;20.66;68.88
13796;SHT30;40911;51.552;9.874;2023-08-30T11:45:20;20.76;69.82
13796;SHT30;40911;51.552;9.874;2023-08-30T11:47:42;21.06;68.77
13796;SHT30;40911;51.552;9.874;2023-08-30T11:50:05;21.21;68.21
13796;SHT30;40911;51.552;9.874;2023-08-30T11:52:30;21.45;68.40
13796;SHT30;40911;51.552;9.874;2023-08-30T11:54:53;21.51;66.48
13796;SHT30;40911;51.552;9.874;2023-08-30T11:57:15;21.27;67.09
13796;SHT30;40911;51.552;9.874;2023-08-30T11:59:39;20.95;66.41
13796;SHT30;40911;51.552;9.874;2023-08-30T12:02:01;20.90;67.17
13796;SHT30;40911;51.552;9.874;2023-08-30T12:04:22;21.27;66.83
13796;SHT30;40911;51.552;9.874;2023-08-30T12:06:51;21.41;66.41
13796;SHT30;40911;51.552;9.874;2023-08-30T12:09:13;21.93;65.91
13796;SHT30;40911;51.552;9.874;2023-08-30T12:11:35;21.55;65.55
13796;SHT30;40911;51.552;9.874;2023-08-30T12:14:01;21.58;63.93
13796;SHT30;40911;51.552;9.874;2023-08-30T12:16:25;22.17;64.97
13796;SHT30;40911;51.552;9.874;2023-08-30T12:18:47;22.20;65.35
13796;SHT30;40911;51.552;9.874;2023-08-30T12:21:09;21.90;63.75
13796;SHT30;40911;51.552;9.874;2023-08-30T12:23:32;21.73;64.14
13796;SHT30;40911;51.552;9.874;2023-08-30T12:25:57;21.65;63.41
13796;SHT30;40911;51.552;9.874;2023-08-30T12:28:19;22.40;61.97
13796;SHT30;40911;51.552;9.874;2023-08-30T12:30:41;22.23;61.94
13796;SHT30;40911;51.552;9.874;2023-08-30T12:33:04;22.33;62.62
13796;SHT30;40911;51.552;9.874;2023-08-30T12:35:26;22.26;63.14
13796;SHT30;40911;51.552;9.874;2023-08-30T12:37:47;22.40;62.98
13796;SHT30;40911;51.552;9.874;2023-08-30T12:40:10;22.09;63.59
13796;SHT30;40911;51.552;9.874;2023-08-30T12:42:32;21.72;61.57
13796;SHT30;40911;51.552;9.874;2023-08-30T12:44:53;21.65;62.82
13796;SHT30;40911;51.552;9.874;2023-08-30T12:47:15;21.95;61.69
13796;SHT30;40911;51.552;9.874;2023-08-30T12:49:38;21.89;63.19
13796;SHT30;40911;51.552;9.874;2023-08-30T12:52:00;22.08;61.21
13796;SHT30;40911;51.552;9.874;2023-08-30T12:54:21;22.13;59.70
13796;SHT30;40911;51.552;9.874;2023-08-30T12:56:43;21.92;60.42
13796;SHT30;40911;51.552;9.874;2023-08-30T12:59:04;22.61;59.40
13796;SHT30;40911;51.552;9.874;2023-08-30T13:01:26;22.44;59.26
13796;SHT30;40911;51.552;9.874;2023-08-30T13:03:48;23.27;58.72
13796;SHT30;40911;51.552;9.874;2023-08-30T13:06:11;22.63;58.07
13796;SHT30;40911;51.552;9.874;2023-08-30T13:08:33;22.68;58.40
13796;SHT30;40911;51.552;9.874;2023-08-30T13:10:55;22.95;59.33
13796;SHT30;40911;51.552;9.874;2023-08-30T13:13:16;22.91;59.91
13796;SHT30;40911;51.552;9.874;2023-08-30T13:15:38;21.88;61.88
13796;SHT30;40911;51.552;9.874;2023-08-30T13:18:00;21.28;62.49
13796;SHT30;40911;51.552;9.874;2023-08-30T13:20:21;22.19;61.19
13796;SHT30;40911;51.552;9.874;2023-08-30T13:22:45;22.57;61.12
13796;SHT30;40911;51.552;9.874;2023-08-30T13:25:07;22.41;60.10
13796;SHT30;40911;51.552;9.874;2023-08-30T13:27:29;22.60;59.06
13796;SHT30;40911;51.552;9.874;2023-08-30T13:29:51;22.55;60.54
13796;SHT30;40911;51.552;9.874;2023-08-30T13:32:12;22.71;59.57
13796;SHT30;40911;51.552;9.874;2023-08-30T13:34:34;22.44;60.11
13796;SHT30;40911;51.552;9.874;2023-08-30T13:36:56;22.51;60.86
13796;SHT30;40911;51.552;9.874;2023-08-30T13:39:19;22.89;60.09
13796;SHT30;40911;51.552;9.874;2023-08-30T13:41:41;23.07;59.68
13796;SHT30;40911;51.552;9.874;2023-08-30T13:44:03;22.23;59.79
13796;SHT30;40911;51.552;9.874;2023-08-30T13:46:25;22.31;60.08
13796;SHT30;40911;51.552;9.874;2023-08-30T13:48:46;22.12;60.07
13796;SHT30;40911;51.552;9.874;2023-08-30T13:51:08;22.05;61.25
13796;SHT30;40911;51.552;9.874;2023-08-30T13:53:30;22.08;61.70
13796;SHT30;40911;51.552;9.874;2023-08-30T13:55:53;21.81;61.83
13796;SHT30;40911;51.552;9.874;2023-08-30T13:58:15;21.33;61.04
13796;SHT30;40911;51.552;9.874;2023-08-30T14:00:37;21.45;62.08
13796;SHT30;40911;51.552;9.874;2023-08-30T14:02:58;21.13;62.04
13796;SHT30;40911;51.552;9.874;2023-08-30T14:05:20;21.45;61.65
13796;SHT30;40911;51.552;9.874;2023-08-30T14:07:42;21.30;61.64
13796;SHT30;40911;51.552;9.874;2023-08-30T14:10:04;21.51;61.93
13796;SHT30;40911;51.552;9.874;2023-08-30T14:12:27;21.45;61.89
13796;SHT30;40911;51.552;9.874;2023-08-30T14:14:49;21.30;61.92
13796;SHT30;40911;51.552;9.874;2023-08-30T14:17:12;21.21;62.14
13796;SHT30;40911;51.552;9.874;2023-08-30T14:19:34;21.66;62.75
13796;SHT30;40911;51.552;9.874;2023-08-30T14:21:56;21.58;62.84
13796;SHT30;40911;51.552;9.874;2023-08-30T14:24:18;21.57;63.05
13796;SHT30;40911;51.552;9.874;2023-08-30T14:26:40;21.48;62.31
13796;SHT30;40911;51.552;9.874;2023-08-30T14:29:03;21.33;62.36
13796;SHT30;40911;51.552;9.874;2023-08-30T14:31:25;21.47;62.28
13796;SHT30;40911;51.552;9.874;2023-08-30T14:33:47;21.75;62.53
13796;SHT30;40911;51.552;9.874;2023-08-30T14:36:08;22.06;61.07
13796;SHT30;40911;51.552;9.874;2023-08-30T14:38:30;22.03;61.36
13796;SHT30;40911;51.552;9.874;2023-08-30T14:40:55;22.23;62.51
13796;SHT30;40911;51.552;9.874;2023-08-30T14:43:17;21.85;62.35
13796;SHT30;40911;51.552;9.874;2023-08-30T14:45:40;22.55;61.38
13796;SHT30;40911;51.552;9.874;2023-08-30T14:48:02;22.21;61.90
13796;SHT30;40911;51.552;9.874;2023-08-30T14:50:24;22.26;62.15
13796;SHT30;40911;51.552;9.874;2023-08-30T14:52:45;22.19;62.68
13796;SHT30;40911;51.552;9.874;2023-08-30T14:55:08;21.41;62.89
13796;SHT30;40911;51.552;9.874;2023-08-30T14:57:29;21.82;63.96
13796;SHT30;40911;51.552;9.874;2023-08-30T14:59:53;21.95;62.86
13796;SHT30;40911;51.552;9.874;2023-08-30T15:02:16;21.73;63.20